Almont, North Dakota
Current Conditions -  °F | °C
As of 2:55 AM on Friday 19 Dec 2014 (Local Time) from KD57 Reporting Station
NA  
Wind Chill: 23°   Ceiling: NA
Heat Index: 23°   Visibility: 10mi
Dew Point: 19°   Wind: 3mph
Humidity: 86%   Direction: 180°S
Pressure: 29.93"   Gusts: NA
Location:  46.73°N, 101.5°W
Report Text: KD57 190955Z AUTO 18003KT 10SM M05/M07 A2993 RMK AO2 TSNO
Loading
Personal Weather Stations






























Interactive Weather Map New forecast layout! Learn more

10-Day Weather Forecast

Advertisements
Track Severe Weather on mobile